sensor_id;sensor_type;location;lat;lon;timestamp;P1;durP1;ratioP1;P2;durP2;ratioP2
62102;SDS011;48077;48.104;11.702;2023-10-09T00:00:54;262.42;;;179.02;;
62102;SDS011;48077;48.104;11.702;2023-10-09T00:07:30;300.00;;;200.18;;
62102;SDS011;48077;48.104;11.702;2023-10-09T00:09:54;282.13;;;192.20;;
62102;SDS011;48077;48.104;11.702;2023-10-09T00:12:18;279.02;;;189.35;;
62102;SDS011;48077;48.104;11.702;2023-10-09T00:14:45;280.70;;;190.45;;
62102;SDS011;48077;48.104;11.702;2023-10-09T00:17:11;276.27;;;189.63;;
62102;SDS011;48077;48.104;11.702;2023-10-09T00:19:34;276.85;;;189.98;;
62102;SDS011;48077;48.104;11.702;2023-10-09T00:21:58;282.17;;;189.93;;
62102;SDS011;48077;48.104;11.702;2023-10-09T00:24:27;278.70;;;189.70;;
62102;SDS011;48077;48.104;11.702;2023-10-09T00:26:52;283.38;;;190.75;;
62102;SDS011;48077;48.104;11.702;2023-10-09T00:29:18;275.83;;;187.65;;
62102;SDS011;48077;48.104;11.702;2023-10-09T00:31:44;282.58;;;191.60;;
62102;SDS011;48077;48.104;11.702;2023-10-09T00:34:13;277.63;;;189.05;;
62102;SDS011;48077;48.104;11.702;2023-10-09T00:36:42;278.55;;;189.52;;
62102;SDS011;48077;48.104;11.702;2023-10-09T00:39:13;285.55;;;192.82;;
62102;SDS011;48077;48.104;11.702;2023-10-09T00:41:45;283.88;;;191.73;;
62102;SDS011;48077;48.104;11.702;2023-10-09T00:44:08;284.58;;;191.13;;
62102;SDS011;48077;48.104;11.702;2023-10-09T00:46:32;275.27;;;187.50;;
62102;SDS011;48077;48.104;11.702;2023-10-09T00:48:57;286.88;;;194.68;;
62102;SDS011;48077;48.104;11.702;2023-10-09T00:51:25;279.60;;;189.87;;
62102;SDS011;48077;48.104;11.702;2023-10-09T00:53:50;284.00;;;191.13;;
62102;SDS011;48077;48.104;11.702;2023-10-09T00:56:17;280.50;;;191.30;;
62102;SDS011;48077;48.104;11.702;2023-10-09T00:58:43;282.38;;;189.30;;
62102;SDS011;48077;48.104;11.702;2023-10-09T01:01:12;283.73;;;191.75;;
62102;SDS011;48077;48.104;11.702;2023-10-09T01:03:39;278.38;;;190.48;;
62102;SDS011;48077;48.104;11.702;2023-10-09T01:06:03;281.48;;;190.90;;
62102;SDS011;48077;48.104;11.702;2023-10-09T01:08:32;280.65;;;191.05;;
62102;SDS011;48077;48.104;11.702;2023-10-09T01:10:58;287.90;;;192.00;;
62102;SDS011;48077;48.104;11.702;2023-10-09T01:13:32;277.02;;;186.68;;
62102;SDS011;48077;48.104;11.702;2023-10-09T01:16:24;287.52;;;193.35;;
62102;SDS011;48077;48.104;11.702;2023-10-09T01:18:54;283.83;;;193.60;;
62102;SDS011;48077;48.104;11.702;2023-10-09T01:21:20;284.77;;;193.38;;
62102;SDS011;48077;48.104;11.702;2023-10-09T01:23:50;282.15;;;189.68;;
62102;SDS011;48077;48.104;11.702;2023-10-09T01:26:32;282.30;;;192.07;;
62102;SDS011;48077;48.104;11.702;2023-10-09T01:29:17;285.45;;;194.80;;
62102;SDS011;48077;48.104;11.702;2023-10-09T01:34:19;289.80;;;193.95;;
62102;SDS011;48077;48.104;11.702;2023-10-09T01:36:47;284.77;;;193.50;;
62102;SDS011;48077;48.104;11.702;2023-10-09T01:39:12;285.35;;;191.70;;
62102;SDS011;48077;48.104;11.702;2023-10-09T01:41:50;289.08;;;194.05;;
62102;SDS011;48077;48.104;11.702;2023-10-09T01:44:15;284.65;;;193.35;;
62102;SDS011;48077;48.104;11.702;2023-10-09T01:46:42;279.30;;;191.00;;
62102;SDS011;48077;48.104;11.702;2023-10-09T01:49:08;284.85;;;194.40;;
62102;SDS011;48077;48.104;11.702;2023-10-09T01:51:40;288.23;;;194.75;;
62102;SDS011;48077;48.104;11.702;2023-10-09T01:54:04;284.35;;;193.57;;
62102;SDS011;48077;48.104;11.702;2023-10-09T01:56:27;287.27;;;193.45;;
62102;SDS011;48077;48.104;11.702;2023-10-09T01:58:51;281.60;;;191.30;;
62102;SDS011;48077;48.104;11.702;2023-10-09T02:01:16;282.92;;;192.23;;
62102;SDS011;48077;48.104;11.702;2023-10-09T02:03:40;281.90;;;191.35;;
62102;SDS011;48077;48.104;11.702;2023-10-09T02:06:06;290.35;;;193.02;;
62102;SDS011;48077;48.104;11.702;2023-10-09T02:08:47;291.63;;;193.98;;
62102;SDS011;48077;48.104;11.702;2023-10-09T02:11:12;292.38;;;194.63;;
62102;SDS011;48077;48.104;11.702;2023-10-09T02:13:37;280.98;;;190.48;;
62102;SDS011;48077;48.104;11.702;2023-10-09T02:16:04;291.67;;;194.73;;
62102;SDS011;48077;48.104;11.702;2023-10-09T02:18:37;288.92;;;194.57;;
62102;SDS011;48077;48.104;11.702;2023-10-09T02:23:29;286.17;;;193.57;;
62102;SDS011;48077;48.104;11.702;2023-10-09T02:26:08;284.77;;;194.75;;
62102;SDS011;48077;48.104;11.702;2023-10-09T02:28:32;291.75;;;197.65;;
62102;SDS011;48077;48.104;11.702;2023-10-09T02:30:58;293.58;;;198.98;;
62102;SDS011;48077;48.104;11.702;2023-10-09T02:33:24;284.05;;;194.65;;
62102;SDS011;48077;48.104;11.702;2023-10-09T02:35:50;287.60;;;194.45;;
62102;SDS011;48077;48.104;11.702;2023-10-09T02:38:14;289.33;;;195.57;;
62102;SDS011;48077;48.104;11.702;2023-10-09T02:40:38;290.33;;;196.00;;
62102;SDS011;48077;48.104;11.702;2023-10-09T02:43:19;289.98;;;197.07;;
62102;SDS011;48077;48.104;11.702;2023-10-09T02:45:44;283.55;;;193.88;;
62102;SDS011;48077;48.104;11.702;2023-10-09T02:48:13;290.25;;;196.90;;
62102;SDS011;48077;48.104;11.702;2023-10-09T02:50:36;277.73;;;190.57;;
62102;SDS011;48077;48.104;11.702;2023-10-09T02:53:01;290.10;;;194.48;;
62102;SDS011;48077;48.104;11.702;2023-10-09T02:55:31;282.00;;;192.00;;
62102;SDS011;48077;48.104;11.702;2023-10-09T02:58:01;284.98;;;192.15;;
62102;SDS011;48077;48.104;11.702;2023-10-09T03:00:34;290.55;;;194.50;;
62102;SDS011;48077;48.104;11.702;2023-10-09T03:02:59;290.38;;;193.38;;
62102;SDS011;48077;48.104;11.702;2023-10-09T03:05:22;284.52;;;192.13;;
62102;SDS011;48077;48.104;11.702;2023-10-09T03:07:47;286.95;;;192.65;;
62102;SDS011;48077;48.104;11.702;2023-10-09T03:10:12;286.02;;;193.90;;
62102;SDS011;48077;48.104;11.702;2023-10-09T03:12:35;283.48;;;192.05;;
62102;SDS011;48077;48.104;11.702;2023-10-09T03:14:59;289.52;;;194.02;;
62102;SDS011;48077;48.104;11.702;2023-10-09T03:17:25;279.08;;;189.05;;
62102;SDS011;48077;48.104;11.702;2023-10-09T03:19:48;287.75;;;192.80;;
62102;SDS011;48077;48.104;11.702;2023-10-09T03:22:11;287.75;;;192.77;;
62102;SDS011;48077;48.104;11.702;2023-10-09T03:24:35;283.98;;;192.63;;
62102;SDS011;48077;48.104;11.702;2023-10-09T03:26:59;285.40;;;194.13;;
62102;SDS011;48077;48.104;11.702;2023-10-09T03:29:23;283.45;;;192.48;;
62102;SDS011;48077;48.104;11.702;2023-10-09T03:31:47;281.33;;;191.70;;
62102;SDS011;48077;48.104;11.702;2023-10-09T03:34:13;279.77;;;190.75;;
62102;SDS011;48077;48.104;11.702;2023-10-09T03:36:37;285.10;;;193.93;;
62102;SDS011;48077;48.104;11.702;2023-10-09T03:39:01;285.40;;;192.13;;
62102;SDS011;48077;48.104;11.702;2023-10-09T03:41:30;286.67;;;194.88;;
62102;SDS011;48077;48.104;11.702;2023-10-09T03:43:54;290.65;;;194.32;;
62102;SDS011;48077;48.104;11.702;2023-10-09T03:46:17;288.50;;;195.75;;
62102;SDS011;48077;48.104;11.702;2023-10-09T03:48:44;291.15;;;195.02;;
62102;SDS011;48077;48.104;11.702;2023-10-09T03:51:09;289.98;;;193.10;;
62102;SDS011;48077;48.104;11.702;2023-10-09T03:53:35;293.98;;;194.90;;
62102;SDS011;48077;48.104;11.702;2023-10-09T03:56:08;292.55;;;196.20;;
62102;SDS011;48077;48.104;11.702;2023-10-09T03:58:35;294.95;;;197.93;;
62102;SDS011;48077;48.104;11.702;2023-10-09T04:00:59;287.00;;;193.73;;
62102;SDS011;48077;48.104;11.702;2023-10-09T04:03:22;292.20;;;196.35;;
62102;SDS011;48077;48.104;11.702;2023-10-09T04:05:47;295.50;;;198.18;;
62102;SDS011;48077;48.104;11.702;2023-10-09T04:08:14;296.77;;;200.02;;
62102;SDS011;48077;48.104;11.702;2023-10-09T04:10:52;302.52;;;202.13;;
62102;SDS011;48077;48.104;11.702;2023-10-09T04:13:15;296.50;;;198.80;;
62102;SDS011;48077;48.104;11.702;2023-10-09T04:15:41;293.20;;;196.68;;
62102;SDS011;48077;48.104;11.702;2023-10-09T04:18:05;301.15;;;200.43;;
62102;SDS011;48077;48.104;11.702;2023-10-09T04:20:32;290.85;;;196.02;;
62102;SDS011;48077;48.104;11.702;2023-10-09T04:22:56;298.35;;;199.32;;
62102;SDS011;48077;48.104;11.702;2023-10-09T04:25:28;297.60;;;200.27;;
62102;SDS011;48077;48.104;11.702;2023-10-09T04:27:53;296.13;;;197.85;;
62102;SDS011;48077;48.104;11.702;2023-10-09T04:30:22;299.58;;;201.35;;
62102;SDS011;48077;48.104;11.702;2023-10-09T04:32:49;295.52;;;197.23;;
62102;SDS011;48077;48.104;11.702;2023-10-09T04:35:12;298.08;;;199.25;;
62102;SDS011;48077;48.104;11.702;2023-10-09T04:37:49;297.48;;;200.63;;
62102;SDS011;48077;48.104;11.702;2023-10-09T04:40:26;302.63;;;201.00;;
62102;SDS011;48077;48.104;11.702;2023-10-09T04:43:11;306.85;;;203.77;;
62102;SDS011;48077;48.104;11.702;2023-10-09T04:45:43;302.52;;;202.18;;
62102;SDS011;48077;48.104;11.702;2023-10-09T04:48:06;303.48;;;202.82;;
62102;SDS011;48077;48.104;11.702;2023-10-09T04:50:32;294.75;;;200.25;;
62102;SDS011;48077;48.104;11.702;2023-10-09T04:52:58;301.38;;;200.93;;
62102;SDS011;48077;48.104;11.702;2023-10-09T04:55:42;302.90;;;202.43;;
62102;SDS011;48077;48.104;11.702;2023-10-09T04:58:17;308.65;;;206.23;;
62102;SDS011;48077;48.104;11.702;2023-10-09T05:00:46;300.77;;;201.57;;
62102;SDS011;48077;48.104;11.702;2023-10-09T05:03:10;307.17;;;203.90;;
62102;SDS011;48077;48.104;11.702;2023-10-09T05:05:35;308.95;;;204.82;;
62102;SDS011;48077;48.104;11.702;2023-10-09T05:11:03;330.13;;;217.20;;
62102;SDS011;48077;48.104;11.702;2023-10-09T05:16:03;310.88;;;208.00;;
62102;SDS011;48077;48.104;11.702;2023-10-09T05:18:26;315.23;;;205.65;;
62102;SDS011;48077;48.104;11.702;2023-10-09T05:20:50;307.67;;;206.30;;
62102;SDS011;48077;48.104;11.702;2023-10-09T05:23:28;304.35;;;203.73;;
62102;SDS011;48077;48.104;11.702;2023-10-09T05:25:52;315.67;;;208.13;;
62102;SDS011;48077;48.104;11.702;2023-10-09T05:28:21;306.25;;;204.50;;
62102;SDS011;48077;48.104;11.702;2023-10-09T05:30:48;305.40;;;204.27;;
62102;SDS011;48077;48.104;11.702;2023-10-09T05:33:18;309.30;;;206.00;;
62102;SDS011;48077;48.104;11.702;2023-10-09T05:35:56;309.10;;;206.80;;
62102;SDS011;48077;48.104;11.702;2023-10-09T05:38:54;308.70;;;205.55;;
62102;SDS011;48077;48.104;11.702;2023-10-09T05:41:36;312.23;;;208.48;;
62102;SDS011;48077;48.104;11.702;2023-10-09T05:44:10;311.80;;;208.40;;
62102;SDS011;48077;48.104;11.702;2023-10-09T05:46:52;312.85;;;207.80;;
62102;SDS011;48077;48.104;11.702;2023-10-09T05:49:34;312.00;;;207.63;;
62102;SDS011;48077;48.104;11.702;2023-10-09T05:52:18;306.20;;;205.90;;
62102;SDS011;48077;48.104;11.702;2023-10-09T05:55:07;318.67;;;210.73;;
62102;SDS011;48077;48.104;11.702;2023-10-09T05:57:52;310.42;;;208.05;;
62102;SDS011;48077;48.104;11.702;2023-10-09T06:00:37;309.67;;;206.68;;
62102;SDS011;48077;48.104;11.702;2023-10-09T06:03:19;309.75;;;207.73;;
62102;SDS011;48077;48.104;11.702;2023-10-09T06:05:43;311.48;;;208.02;;
62102;SDS011;48077;48.104;11.702;2023-10-09T06:08:25;307.95;;;206.63;;
62102;SDS011;48077;48.104;11.702;2023-10-09T06:10:50;309.73;;;207.35;;
62102;SDS011;48077;48.104;11.702;2023-10-09T06:16:02;328.52;;;215.38;;
62102;SDS011;48077;48.104;11.702;2023-10-09T06:19:04;325.13;;;216.32;;
62102;SDS011;48077;48.104;11.702;2023-10-09T06:21:49;312.27;;;209.32;;
62102;SDS011;48077;48.104;11.702;2023-10-09T06:24:15;307.25;;;205.02;;
62102;SDS011;48077;48.104;11.702;2023-10-09T06:26:38;307.48;;;205.82;;
62102;SDS011;48077;48.104;11.702;2023-10-09T06:29:04;307.55;;;207.32;;
62102;SDS011;48077;48.104;11.702;2023-10-09T06:31:53;306.40;;;204.75;;
62102;SDS011;48077;48.104;11.702;2023-10-09T06:34:39;314.40;;;208.40;;
62102;SDS011;48077;48.104;11.702;2023-10-09T06:37:07;308.45;;;205.77;;
62102;SDS011;48077;48.104;11.702;2023-10-09T06:39:42;302.30;;;203.10;;
62102;SDS011;48077;48.104;11.702;2023-10-09T06:42:34;303.70;;;203.80;;
62102;SDS011;48077;48.104;11.702;2023-10-09T06:45:10;302.88;;;201.48;;
62102;SDS011;48077;48.104;11.702;2023-10-09T06:47:37;305.13;;;203.25;;
62102;SDS011;48077;48.104;11.702;2023-10-09T06:50:04;296.70;;;197.88;;
62102;SDS011;48077;48.104;11.702;2023-10-09T06:55:20;322.25;;;211.18;;
62102;SDS011;48077;48.104;11.702;2023-10-09T06:57:55;308.13;;;203.25;;
62102;SDS011;48077;48.104;11.702;2023-10-09T07:00:24;293.63;;;195.80;;
62102;SDS011;48077;48.104;11.702;2023-10-09T07:03:06;300.13;;;199.35;;
62102;SDS011;48077;48.104;11.702;2023-10-09T07:05:34;291.27;;;195.43;;
62102;SDS011;48077;48.104;11.702;2023-10-09T07:08:11;290.60;;;194.25;;
62102;SDS011;48077;48.104;11.702;2023-10-09T07:10:54;288.05;;;191.00;;
62102;SDS011;48077;48.104;11.702;2023-10-09T07:13:38;288.17;;;190.75;;
62102;SDS011;48077;48.104;11.702;2023-10-09T07:16:01;284.15;;;189.63;;
62102;SDS011;48077;48.104;11.702;2023-10-09T07:18:43;287.08;;;190.20;;
62102;SDS011;48077;48.104;11.702;2023-10-09T07:26:12;299.83;;;200.15;;
62102;SDS011;48077;48.104;11.702;2023-10-09T07:28:41;296.85;;;192.48;;
62102;SDS011;48077;48.104;11.702;2023-10-09T07:31:18;291.50;;;189.95;;
62102;SDS011;48077;48.104;11.702;2023-10-09T07:33:52;287.73;;;188.32;;
62102;SDS011;48077;48.104;11.702;2023-10-09T07:36:29;275.45;;;181.98;;
62102;SDS011;48077;48.104;11.702;2023-10-09T07:38:57;276.52;;;182.52;;
62102;SDS011;48077;48.104;11.702;2023-10-09T07:41:22;276.15;;;180.95;;
62102;SDS011;48077;48.104;11.702;2023-10-09T07:43:46;274.05;;;179.93;;
62102;SDS011;48077;48.104;11.702;2023-10-09T07:46:11;273.45;;;178.45;;
62102;SDS011;48077;48.104;11.702;2023-10-09T07:48:53;274.02;;;180.25;;
62102;SDS011;48077;48.104;11.702;2023-10-09T07:51:18;283.60;;;181.20;;
62102;SDS011;48077;48.104;11.702;2023-10-09T07:53:46;269.05;;;174.40;;
62102;SDS011;48077;48.104;11.702;2023-10-09T07:56:12;267.23;;;174.18;;
62102;SDS011;48077;48.104;11.702;2023-10-09T07:58:43;268.80;;;172.02;;
62102;SDS011;48077;48.104;11.702;2023-10-09T08:01:10;266.30;;;171.85;;
62102;SDS011;48077;48.104;11.702;2023-10-09T08:03:39;263.90;;;171.30;;
62102;SDS011;48077;48.104;11.702;2023-10-09T08:06:02;259.85;;;168.43;;
62102;SDS011;48077;48.104;11.702;2023-10-09T08:08:45;254.77;;;165.02;;
62102;SDS011;48077;48.104;11.702;2023-10-09T08:11:29;253.77;;;165.18;;
62102;SDS011;48077;48.104;11.702;2023-10-09T08:14:18;246.35;;;162.52;;
62102;SDS011;48077;48.104;11.702;2023-10-09T08:16:44;242.05;;;159.88;;
62102;SDS011;48077;48.104;11.702;2023-10-09T08:19:07;239.88;;;157.68;;
62102;SDS011;48077;48.104;11.702;2023-10-09T08:21:49;238.80;;;157.35;;
62102;SDS011;48077;48.104;11.702;2023-10-09T08:24:31;238.45;;;157.63;;
62102;SDS011;48077;48.104;11.702;2023-10-09T08:27:12;235.48;;;155.75;;
62102;SDS011;48077;48.104;11.702;2023-10-09T08:29:54;228.88;;;154.68;;
62102;SDS011;48077;48.104;11.702;2023-10-09T08:32:35;226.48;;;151.02;;
62102;SDS011;48077;48.104;11.702;2023-10-09T08:35:01;218.90;;;147.90;;
62102;SDS011;48077;48.104;11.702;2023-10-09T08:37:29;217.50;;;149.30;;
62102;SDS011;48077;48.104;11.702;2023-10-09T08:39:53;210.85;;;146.65;;
62102;SDS011;48077;48.104;11.702;2023-10-09T08:42:17;216.48;;;148.45;;
62102;SDS011;48077;48.104;11.702;2023-10-09T08:44:46;214.50;;;148.13;;
62102;SDS011;48077;48.104;11.702;2023-10-09T08:47:12;218.35;;;147.27;;
62102;SDS011;48077;48.104;11.702;2023-10-09T08:49:35;219.35;;;147.80;;
62102;SDS011;48077;48.104;11.702;2023-10-09T08:52:00;209.05;;;145.02;;
62102;SDS011;48077;48.104;11.702;2023-10-09T08:54:26;207.80;;;144.50;;
62102;SDS011;48077;48.104;11.702;2023-10-09T08:56:49;203.13;;;142.90;;
62102;SDS011;48077;48.104;11.702;2023-10-09T08:59:12;203.48;;;142.70;;
62102;SDS011;48077;48.104;11.702;2023-10-09T09:01:36;200.63;;;141.30;;
62102;SDS011;48077;48.104;11.702;2023-10-09T09:04:00;200.05;;;139.40;;
62102;SDS011;48077;48.104;11.702;2023-10-09T09:06:25;208.88;;;142.13;;
62102;SDS011;48077;48.104;11.702;2023-10-09T09:08:49;191.13;;;137.05;;
62102;SDS011;48077;48.104;11.702;2023-10-09T09:11:18;201.60;;;139.85;;
62102;SDS011;48077;48.104;11.702;2023-10-09T09:16:21;192.27;;;138.02;;
62102;SDS011;48077;48.104;11.702;2023-10-09T09:18:49;189.02;;;135.77;;
62102;SDS011;48077;48.104;11.702;2023-10-09T09:21:23;191.50;;;135.50;;
62102;SDS011;48077;48.104;11.702;2023-10-09T09:23:53;191.73;;;138.80;;
62102;SDS011;48077;48.104;11.702;2023-10-09T09:26:37;193.93;;;139.57;;
62102;SDS011;48077;48.104;11.702;2023-10-09T09:29:07;198.55;;;138.95;;
62102;SDS011;48077;48.104;11.702;2023-10-09T09:31:32;201.68;;;139.13;;
62102;SDS011;48077;48.104;11.702;2023-10-09T09:34:02;195.60;;;137.80;;
62102;SDS011;48077;48.104;11.702;2023-10-09T09:36:27;192.23;;;136.63;;
62102;SDS011;48077;48.104;11.702;2023-10-09T09:38:53;196.48;;;136.45;;
62102;SDS011;48077;48.104;11.702;2023-10-09T09:41:24;183.43;;;134.25;;
62102;SDS011;48077;48.104;11.702;2023-10-09T09:43:58;193.35;;;136.95;;
62102;SDS011;48077;48.104;11.702;2023-10-09T09:46:26;190.48;;;137.20;;
62102;SDS011;48077;48.104;11.702;2023-10-09T09:48:56;192.90;;;136.25;;
62102;SDS011;48077;48.104;11.702;2023-10-09T09:51:23;187.90;;;135.88;;
62102;SDS011;48077;48.104;11.702;2023-10-09T09:53:47;188.70;;;136.52;;
62102;SDS011;48077;48.104;11.702;2023-10-09T09:56:12;186.13;;;133.65;;
62102;SDS011;48077;48.104;11.702;2023-10-09T09:58:41;189.63;;;135.00;;
62102;SDS011;48077;48.104;11.702;2023-10-09T10:01:09;182.65;;;132.55;;
62102;SDS011;48077;48.104;11.702;2023-10-09T10:03:48;183.18;;;133.30;;
62102;SDS011;48077;48.104;11.702;2023-10-09T10:06:14;186.05;;;133.68;;
62102;SDS011;48077;48.104;11.702;2023-10-09T10:08:42;182.50;;;130.68;;
62102;SDS011;48077;48.104;11.702;2023-10-09T10:11:05;191.00;;;136.18;;
62102;SDS011;48077;48.104;11.702;2023-10-09T10:16:05;181.50;;;133.70;;
62102;SDS011;48077;48.104;11.702;2023-10-09T10:21:30;185.43;;;135.30;;
62102;SDS011;48077;48.104;11.702;2023-10-09T10:23:55;182.85;;;132.88;;
62102;SDS011;48077;48.104;11.702;2023-10-09T10:26:28;186.57;;;133.15;;
62102;SDS011;48077;48.104;11.702;2023-10-09T10:29:16;178.27;;;130.63;;
62102;SDS011;48077;48.104;11.702;2023-10-09T10:31:56;177.93;;;131.43;;
62102;SDS011;48077;48.104;11.702;2023-10-09T10:34:23;184.93;;;134.35;;
62102;SDS011;48077;48.104;11.702;2023-10-09T10:36:47;181.75;;;134.02;;
62102;SDS011;48077;48.104;11.702;2023-10-09T10:39:21;185.55;;;133.27;;
62102;SDS011;48077;48.104;11.702;2023-10-09T10:42:02;184.13;;;129.82;;
62102;SDS011;48077;48.104;11.702;2023-10-09T10:44:29;177.07;;;130.90;;
62102;SDS011;48077;48.104;11.702;2023-10-09T10:49:20;196.10;;;139.15;;
62102;SDS011;48077;48.104;11.702;2023-10-09T10:51:44;181.13;;;131.60;;
62102;SDS011;48077;48.104;11.702;2023-10-09T10:54:12;178.30;;;129.95;;
62102;SDS011;48077;48.104;11.702;2023-10-09T10:56:54;182.43;;;130.43;;
62102;SDS011;48077;48.104;11.702;2023-10-09T10:59:20;177.82;;;130.73;;
62102;SDS011;48077;48.104;11.702;2023-10-09T11:01:51;177.73;;;127.72;;
62102;SDS011;48077;48.104;11.702;2023-10-09T11:04:25;182.90;;;131.95;;
62102;SDS011;48077;48.104;11.702;2023-10-09T11:06:55;179.60;;;129.05;;
62102;SDS011;48077;48.104;11.702;2023-10-09T11:09:45;178.93;;;129.70;;
62102;SDS011;48077;48.104;11.702;2023-10-09T11:12:27;190.60;;;134.00;;
62102;SDS011;48077;48.104;11.702;2023-10-09T11:15:05;182.13;;;130.30;;
62102;SDS011;48077;48.104;11.702;2023-10-09T11:17:45;174.93;;;129.05;;
62102;SDS011;48077;48.104;11.702;2023-10-09T11:20:09;195.50;;;131.95;;
62102;SDS011;48077;48.104;11.702;2023-10-09T11:22:55;183.48;;;131.95;;
62102;SDS011;48077;48.104;11.702;2023-10-09T11:25:34;174.77;;;130.05;;
62102;SDS011;48077;48.104;11.702;2023-10-09T11:27:58;185.38;;;128.25;;
62102;SDS011;48077;48.104;11.702;2023-10-09T11:30:38;174.27;;;128.65;;
62102;SDS011;48077;48.104;11.702;2023-10-09T11:33:06;177.75;;;126.70;;
62102;SDS011;48077;48.104;11.702;2023-10-09T11:35:37;173.40;;;125.00;;
62102;SDS011;48077;48.104;11.702;2023-10-09T11:38:00;163.75;;;121.70;;
62102;SDS011;48077;48.104;11.702;2023-10-09T11:40:43;161.32;;;122.05;;
62102;SDS011;48077;48.104;11.702;2023-10-09T11:43:28;164.98;;;121.90;;
62102;SDS011;48077;48.104;11.702;2023-10-09T11:46:14;163.07;;;121.40;;
62102;SDS011;48077;48.104;11.702;2023-10-09T11:49:06;174.40;;;126.03;;
62102;SDS011;48077;48.104;11.702;2023-10-09T11:51:43;160.98;;;120.07;;
62102;SDS011;48077;48.104;11.702;2023-10-09T11:54:29;157.68;;;121.40;;
62102;SDS011;48077;48.104;11.702;2023-10-09T11:56:54;162.73;;;120.30;;
62102;SDS011;48077;48.104;11.702;2023-10-09T11:59:18;175.43;;;120.75;;
62102;SDS011;48077;48.104;11.702;2023-10-09T12:01:45;159.73;;;116.60;;
62102;SDS011;48077;48.104;11.702;2023-10-09T12:04:15;162.98;;;118.13;;
62102;SDS011;48077;48.104;11.702;2023-10-09T12:06:39;165.02;;;123.47;;
62102;SDS011;48077;48.104;11.702;2023-10-09T12:09:05;166.82;;;121.28;;
62102;SDS011;48077;48.104;11.702;2023-10-09T12:11:28;174.35;;;125.28;;
62102;SDS011;48077;48.104;11.702;2023-10-09T12:13:52;168.63;;;122.55;;
62102;SDS011;48077;48.104;11.702;2023-10-09T12:16:19;170.57;;;124.20;;
62102;SDS011;48077;48.104;11.702;2023-10-09T12:18:45;163.15;;;124.00;;
62102;SDS011;48077;48.104;11.702;2023-10-09T12:21:16;170.45;;;122.43;;
62102;SDS011;48077;48.104;11.702;2023-10-09T12:23:39;182.95;;;127.50;;
62102;SDS011;48077;48.104;11.702;2023-10-09T12:26:04;169.20;;;125.95;;
62102;SDS011;48077;48.104;11.702;2023-10-09T12:28:27;170.88;;;126.07;;
62102;SDS011;48077;48.104;11.702;2023-10-09T12:30:52;181.98;;;128.98;;
62102;SDS011;48077;48.104;11.702;2023-10-09T12:33:16;168.07;;;124.75;;
62102;SDS011;48077;48.104;11.702;2023-10-09T12:35:41;174.98;;;125.05;;
62102;SDS011;48077;48.104;11.702;2023-10-09T12:38:05;179.15;;;128.15;;
62102;SDS011;48077;48.104;11.702;2023-10-09T12:40:32;186.85;;;130.65;;
62102;SDS011;48077;48.104;11.702;2023-10-09T12:42:55;204.40;;;131.98;;
62102;SDS011;48077;48.104;11.702;2023-10-09T12:45:21;195.82;;;132.65;;
62102;SDS011;48077;48.104;11.702;2023-10-09T12:47:49;190.60;;;132.23;;
62102;SDS011;48077;48.104;11.702;2023-10-09T12:50:12;185.18;;;132.15;;
62102;SDS011;48077;48.104;11.702;2023-10-09T12:52:37;179.52;;;130.63;;
62102;SDS011;48077;48.104;11.702;2023-10-09T12:55:00;177.25;;;130.77;;
62102;SDS011;48077;48.104;11.702;2023-10-09T12:57:29;188.32;;;131.75;;
62102;SDS011;48077;48.104;11.702;2023-10-09T12:59:53;194.98;;;135.48;;
62102;SDS011;48077;48.104;11.702;2023-10-09T13:02:16;195.60;;;135.95;;
62102;SDS011;48077;48.104;11.702;2023-10-09T13:04:51;195.70;;;137.18;;
62102;SDS011;48077;48.104;11.702;2023-10-09T13:07:14;207.15;;;136.68;;
62102;SDS011;48077;48.104;11.702;2023-10-09T13:09:44;202.52;;;137.90;;
62102;SDS011;48077;48.104;11.702;2023-10-09T13:12:28;195.45;;;137.55;;
62102;SDS011;48077;48.104;11.702;2023-10-09T13:14:51;201.20;;;137.55;;
62102;SDS011;48077;48.104;11.702;2023-10-09T13:17:16;194.63;;;138.30;;
62102;SDS011;48077;48.104;11.702;2023-10-09T13:19:39;200.27;;;139.75;;
62102;SDS011;48077;48.104;11.702;2023-10-09T13:22:02;206.48;;;139.43;;
62102;SDS011;48077;48.104;11.702;2023-10-09T13:24:26;205.27;;;140.60;;
62102;SDS011;48077;48.104;11.702;2023-10-09T13:26:52;206.68;;;141.23;;
62102;SDS011;48077;48.104;11.702;2023-10-09T13:29:21;215.05;;;141.93;;
62102;SDS011;48077;48.104;11.702;2023-10-09T13:31:46;210.35;;;142.25;;
62102;SDS011;48077;48.104;11.702;2023-10-09T13:34:10;211.13;;;144.73;;
62102;SDS011;48077;48.104;11.702;2023-10-09T13:36:37;214.90;;;144.70;;
62102;SDS011;48077;48.104;11.702;2023-10-09T13:39:02;231.18;;;153.13;;
62102;SDS011;48077;48.104;11.702;2023-10-09T13:41:47;221.38;;;146.48;;
62102;SDS011;48077;48.104;11.702;2023-10-09T13:44:20;225.30;;;148.13;;
62102;SDS011;48077;48.104;11.702;2023-10-09T13:46:44;205.27;;;142.15;;
62102;SDS011;48077;48.104;11.702;2023-10-09T13:49:10;214.70;;;145.38;;
62102;SDS011;48077;48.104;11.702;2023-10-09T13:51:36;222.27;;;149.23;;
62102;SDS011;48077;48.104;11.702;2023-10-09T13:54:00;210.60;;;146.05;;
62102;SDS011;48077;48.104;11.702;2023-10-09T13:56:23;229.65;;;155.52;;
62102;SDS011;48077;48.104;11.702;2023-10-09T13:58:50;217.70;;;147.02;;
62102;SDS011;48077;48.104;11.702;2023-10-09T14:01:14;215.82;;;146.75;;
62102;SDS011;48077;48.104;11.702;2023-10-09T14:03:49;229.80;;;150.48;;
62102;SDS011;48077;48.104;11.702;2023-10-09T14:06:18;231.23;;;151.80;;
62102;SDS011;48077;48.104;11.702;2023-10-09T14:08:53;225.95;;;148.77;;
62102;SDS011;48077;48.104;11.702;2023-10-09T14:11:18;227.93;;;148.85;;
62102;SDS011;48077;48.104;11.702;2023-10-09T14:13:41;232.02;;;151.75;;
62102;SDS011;48077;48.104;11.702;2023-10-09T14:16:05;226.55;;;153.77;;
62102;SDS011;48077;48.104;11.702;2023-10-09T14:18:29;229.20;;;154.32;;
62102;SDS011;48077;48.104;11.702;2023-10-09T14:20:55;234.02;;;155.20;;
62102;SDS011;48077;48.104;11.702;2023-10-09T14:23:19;236.73;;;155.50;;
62102;SDS011;48077;48.104;11.702;2023-10-09T14:25:43;247.50;;;159.40;;
62102;SDS011;48077;48.104;11.702;2023-10-09T14:28:08;245.25;;;159.63;;
62102;SDS011;48077;48.104;11.702;2023-10-09T14:30:31;246.43;;;159.77;;
62102;SDS011;48077;48.104;11.702;2023-10-09T14:32:57;248.93;;;162.57;;